Douglas, AZ

7:34 PM MST en Julio 23, 2014 (GMT -0700)
Cochise county (KAZDOUGL2) Alt 4400 ft | 31.46 °N, 109.48 °W | Change Station

Current weather conditions updated 11 seconds ago

Despejado
Despejado
88.7 ° F
Sensación térmica 86 ° F
N
11.0
Viento Variable Viento desde Este
Gusts 24.0 mph

Mañana se prevé un día Más cálido que hoy.

Hoy
Alta -- | Baja -- ° F
--% Posibilidad de precipitaciones
Ayer
Alta -- | Baja -- ° F
Precip. -- pul
5:29 AM 7:19 PM
Creciente menguante, 7% visible
Presión 30.10 pul
Visibilidad 10.0 Millas
Nubes Despejado
Índice de calor 86 ° F
Punto de rocío 49 ° F
Humedad 26%
Precipitaciones 0.00 pul
Espesor de la nieve No disponible.
UV 0 de una escala de 12
Polen 4.90 de una escala de 12
Calidad del aire No disponible.
Flu Activity No disponible.
METAR KDUG 240156Z AUTO 11006KT 10SM CLR 32/11 A3010

More Conditions Fewer Conditions

Presión 30.10 pul
Visibilidad 10.0 Millas
Nubes Despejado
Índice de calor 86 ° F
Punto de rocío 49 ° F
Humedad 26%
Precipitaciones 0.00 pul
Espesor de la nieve No disponible.
UV 0 de una escala de 12
Polen 4.90 de una escala de 12
Calidad del aire No disponible.
Flu Activity No disponible.
METAR KDUG 240156Z AUTO 11006KT 10SM CLR 32/11 A3010

More Conditions Fewer Conditions

10-Day Weather Forecast

Almanac

Astronomía

Jul. 23, 2014 Salida Puesta
Hora real 5:29 AM MST 7:19 PM MST
Crepúsculo civil 5:02 AM MST 7:46 PM MST
Crepúsculo náutico 4:29 AM MST 8:19 PM MST
Crepúsculo astronómico 3:55 AM MST 8:53 PM MST
Luna 2:49 AM MST (7/23) 4:52 PM MST (7/23)
Horas de luz 14h 44m
Horas de luz
13h 50m
Tomorrow will be 1m 12s shorter.
Creciente menguante, 7% of the Moon is Illuminated
Hoy
Creciente menguante
Jul 26
Nueva
Ago 3
Cuarto creciente
Ago 10
Luna llena
Ago 17
Cuarto menguante

Extremos de hoy

Máximos del estado Bajos del estado

Community

WunderPhotos

Upload Photos

1,736,863 ¡fotos cargadas!

Nearby

Grosos de nieve

Estación Profundido Altura
Beaver Head 0 in 7990 ft
Maverick Fork 0 in 9200 ft
Workman Creek 0 in 6900 ft

Actividad de terremotos

Ciudad Distance Mag. Tiempo y dato
Lordsburg, New Mexico 86 Millas 3.0 2:12 AM MST
2014-07-17
Magnitud mínima muestra es 2,5.

Temperaturas de aguas costeras

Lugar Temperatura
Sin partes meteorológicos de las estaciones

Estaciones meteorológicas cercanas

Ubicación de la estación Temp. Índice de calor Punto de rocío Humedad Viento Precip. Alt Actualizado Tipo
Cochise county, Douglas, AZ 88.7 ° F 86 ° F 49 ° F 26% Este  a  11.0 mph 0.00 pul / hr 4400 ft 7:34 PM MST Normal
Warren Cub Scout Pack 401, Bisbee, AZ 86.2 ° F 84 ° F 54 ° F 33% Norte  a  0.0 mph 0.00 pul / hr 5016 ft 7:34 PM MST Rapid Fire
Bisbee, Historic Old, Bisbee, AZ 83.7 ° F 82 ° F 52 ° F 34% ESE  a  2.9 mph 0.00 pul / hr 5378 ft 7:34 PM MST Rapid Fire

Show More Stations Show Fewer Stations